Time;durP1;ratioP1;P1;durP2;ratioP2;P2;SDS_P1;SDS_P2;PMS_P1;PMS_P2;Temp;Humidity;BMP_temperature;BMP_pressure;BME280_temperature;BME280_humidity;BME280_pressure;Samples;Min_cycle;Max_cycle;Signal;HPM_P1;HPM_P2
2022/04/21 00:01:31;;;;;;;18.63;6.50;;;7.70;99.90;;;;;;4956086;28;20459;-80
2022/04/21 00:03:56;;;;;;;11.68;6.25;;;7.70;99.90;;;;;;4960224;28;20020;-80
2022/04/21 00:06:22;;;;;;;11.50;6.40;;;7.70;99.90;;;;;;4967022;28;20023;-80
2022/04/21 00:08:48;;;;;;;12.38;6.25;;;7.60;99.90;;;;;;4994807;23;20049;-84
2022/04/21 00:11:14;;;;;;;13.40;6.07;;;7.60;99.90;;;;;;4971599;28;20038;-84
2022/04/21 00:13:39;;;;;;;14.25;6.32;;;7.60;99.90;;;;;;4973829;28;20023;-85
2022/04/21 00:16:05;;;;;;;12.80;6.10;;;7.60;99.90;;;;;;4956196;28;20034;-85
2022/04/21 00:18:31;;;;;;;15.15;7.30;;;7.60;99.90;;;;;;4973567;28;20412;-84
2022/04/21 00:20:59;;;;;;;14.82;6.35;;;7.50;99.90;;;;;;4952647;28;20018;-84
2022/04/21 00:23:29;;;;;;;18.63;7.30;;;7.50;99.90;;;;;;4955822;28;20051;-84
2022/04/21 00:26:00;;;;;;;10.63;6.50;;;7.40;99.90;;;;;;4972701;28;20034;-83
2022/04/21 00:28:28;;;;;;;19.65;6.85;;;7.40;99.90;;;;;;4956167;28;20027;-84
2022/04/21 00:30:54;;;;;;;14.30;6.72;;;7.40;99.90;;;;;;4956075;28;20065;-83
2022/04/21 00:33:20;;;;;;;16.40;7.03;;;7.40;99.90;;;;;;4955674;28;20034;-83
2022/04/21 00:35:46;;;;;;;14.55;7.70;;;7.50;99.90;;;;;;4955370;28;20035;-84
2022/04/21 00:38:12;;;;;;;15.82;7.60;;;7.70;99.90;;;;;;4973262;28;20081;-84
2022/04/21 00:40:38;;;;;;;16.50;6.72;;;7.70;99.90;;;;;;4972705;28;20097;-83
2022/04/21 00:43:04;;;;;;;17.08;6.82;;;7.70;99.90;;;;;;4973224;28;20081;-84
2022/04/21 00:45:32;;;;;;;15.88;7.00;;;7.70;99.90;;;;;;4973232;28;20026;-84
2022/04/21 00:47:59;;;;;;;17.45;8.35;;;7.80;99.90;;;;;;4973039;28;20023;-84
2022/04/21 00:50:30;;;;;;;18.77;7.88;;;7.80;99.90;;;;;;4970657;28;20037;-84
2022/04/21 00:52:57;;;;;;;15.25;7.15;;;7.80;99.90;;;;;;4973331;28;20018;-84
2022/04/21 00:55:23;;;;;;;21.90;8.52;;;7.90;99.90;;;;;;4972709;28;20447;-84
2022/04/21 00:57:53;;;;;;;19.75;8.18;;;8.10;99.90;;;;;;4972825;28;20062;-83
2022/04/21 01:00:19;;;;;;;18.83;7.20;;;8.00;99.90;;;;;;4972573;28;20353;-84
2022/04/21 01:02:52;;;;;;;17.48;7.95;;;8.00;99.90;;;;;;4972727;28;20027;-83
2022/04/21 01:05:32;;;;;;;17.40;7.30;;;8.00;99.90;;;;;;4972690;28;20097;-83
2022/04/21 01:08:06;;;;;;;19.80;7.97;;;8.00;99.90;;;;;;4954875;28;20418;-83
2022/04/21 02:10:06;;;;;;;19.20;8.60;;;7.70;99.90;;;;;;5485878;23;20128;-79
2022/04/21 02:12:32;;;;;;;24.08;9.35;;;7.70;99.90;;;;;;4990530;28;20055;-79
2022/04/21 02:15:01;;;;;;;17.73;7.88;;;7.70;99.90;;;;;;4990560;28;20033;-79
2022/04/21 02:17:28;;;;;;;22.13;8.25;;;7.70;99.90;;;;;;4991089;28;20501;-79
2022/04/21 02:19:53;;;;;;;20.10;9.40;;;7.60;99.90;;;;;;4990943;28;20470;-79
2022/04/21 02:22:19;;;;;;;18.75;8.27;;;7.80;99.90;;;;;;4973295;28;20096;-79
2022/04/21 02:24:45;;;;;;;20.25;8.27;;;7.70;99.90;;;;;;4990883;28;20471;-79
2022/04/21 02:27:11;;;;;;;24.33;10.82;;;7.60;99.90;;;;;;4991235;28;20084;-79
2022/04/21 02:29:37;;;;;;;22.52;8.82;;;7.60;99.90;;;;;;4990789;28;20406;-79
2022/04/21 02:32:04;;;;;;;18.65;8.27;;;7.50;99.90;;;;;;4990671;28;20027;-79
2022/04/21 02:34:30;;;;;;;22.73;9.07;;;7.40;99.90;;;;;;4973851;28;20038;-79
2022/04/21 02:36:57;;;;;;;18.38;8.73;;;7.40;99.90;;;;;;4990608;28;20035;-79
2022/04/21 02:39:24;;;;;;;22.35;10.18;;;7.30;99.90;;;;;;4987984;28;20019;-79
2022/04/21 02:41:50;;;;;;;22.35;9.05;;;7.20;99.90;;;;;;4990815;28;20057;-79
2022/04/21 02:44:16;;;;;;;19.20;9.70;;;7.20;99.90;;;;;;4990575;28;20018;-79
2022/04/21 02:46:42;;;;;;;18.20;9.02;;;7.20;99.90;;;;;;4990513;28;20026;-79
2022/04/21 02:49:08;;;;;;;16.20;8.93;;;7.00;99.90;;;;;;4973395;28;20030;-79
2022/04/21 02:51:34;;;;;;;23.40;9.70;;;7.10;99.90;;;;;;4990713;28;20081;-80
2022/04/21 02:59:29;;;;;;;24.52;9.82;;;7.20;99.90;;;;;;4990148;28;20394;-78
2022/04/21 03:01:55;;;;;;;23.75;10.00;;;7.20;99.90;;;;;;4990690;28;20502;-79
2022/04/21 03:04:21;;;;;;;24.73;10.30;;;7.10;99.90;;;;;;4990312;28;20034;-79
2022/04/21 03:06:47;;;;;;;25.25;9.45;;;7.10;99.90;;;;;;4990265;28;20094;-79
2022/04/21 03:09:13;;;;;;;24.23;9.50;;;7.00;99.90;;;;;;5007891;23;20025;-83
2022/04/21 03:11:39;;;;;;;25.95;9.75;;;6.90;99.90;;;;;;4969892;28;20778;-82
2022/04/21 03:14:04;;;;;;;20.33;9.52;;;6.70;99.90;;;;;;4953230;28;20073;-83
2022/04/21 03:16:30;;;;;;;16.85;10.18;;;6.60;99.90;;;;;;4953577;28;20074;-82
2022/04/21 03:18:56;;;;;;;26.45;9.88;;;6.60;99.90;;;;;;4953922;28;20074;-82
2022/04/21 03:24:21;;;;;;;43.80;13.70;;;6.80;99.90;;;;;;4973849;28;20038;-82
2022/04/21 03:26:51;;;;;;;25.70;11.47;;;6.90;99.90;;;;;;4974540;28;20035;-82
2022/04/21 03:29:17;;;;;;;26.15;11.95;;;6.90;99.90;;;;;;4956780;28;20026;-82
2022/04/21 03:31:44;;;;;;;30.90;11.52;;;6.80;99.90;;;;;;4974563;28;20023;-82
2022/04/21 03:34:14;;;;;;;16.63;10.23;;;6.70;99.90;;;;;;4974021;28;20599;-82
2022/04/21 03:36:59;;;;;;;24.23;12.00;;;6.70;99.90;;;;;;4973858;28;20037;-82
2022/04/21 03:39:24;;;;;;;21.23;11.15;;;6.80;99.90;;;;;;4973527;28;20037;-82
2022/04/21 03:41:53;;;;;;;22.08;10.77;;;6.70;99.90;;;;;;4974910;28;20105;-82
2022/04/21 03:44:20;;;;;;;26.00;11.98;;;6.70;99.90;;;;;;4973911;28;20015;-82
2022/04/21 03:46:46;;;;;;;27.55;11.65;;;6.60;99.90;;;;;;4974075;28;20035;-82
2022/04/21 03:49:12;;;;;;;25.95;11.75;;;6.60;99.90;;;;;;4973238;28;20031;-83
2022/04/21 03:51:37;;;;;;;32.20;13.25;;;6.60;99.90;;;;;;4973908;28;20466;-82
2022/04/21 03:54:04;;;;;;;28.65;12.77;;;6.70;99.90;;;;;;4956487;28;20427;-82
2022/04/21 03:56:30;;;;;;;31.95;12.27;;;6.70;99.90;;;;;;4956156;28;20035;-82
2022/04/21 03:58:57;;;;;;;30.65;12.38;;;6.70;99.90;;;;;;4960322;28;20126;-82
2022/04/21 04:01:23;;;;;;;24.30;11.93;;;6.60;99.90;;;;;;4956326;28;20019;-82
2022/04/21 04:03:49;;;;;;;24.13;12.07;;;6.50;99.90;;;;;;4956368;28;20046;-82
2022/04/21 04:11:43;;;;;;;30.85;14.50;;;6.20;99.90;;;;;;4940462;28;20050;-79
2022/04/21 04:14:09;;;;;;;26.85;13.40;;;6.40;99.90;;;;;;4954139;28;20019;-79
2022/04/21 04:16:35;;;;;;;24.75;12.40;;;6.40;99.90;;;;;;4936294;28;20043;-79
2022/04/21 04:19:07;;;;;;;25.63;12.55;;;6.30;99.90;;;;;;4936445;28;20015;-79
2022/04/21 04:21:33;;;;;;;;;;;6.30;99.90;;;;;;4953992;28;20110;-79
2022/04/21 04:23:59;;;;;;;23.67;12.20;;;6.30;99.90;;;;;;4953884;28;19914;-79
2022/04/21 04:26:25;;;;;;;26.27;13.57;;;6.30;99.90;;;;;;4953986;28;20027;-79
2022/04/21 04:28:51;;;;;;;31.35;12.98;;;6.20;99.90;;;;;;4953802;28;20027;-79
2022/04/21 04:31:16;;;;;;;25.02;12.27;;;6.20;99.90;;;;;;4953717;28;20034;-79
2022/04/21 04:33:42;;;;;;;28.80;11.88;;;6.10;99.90;;;;;;4953791;28;20102;-79
2022/04/21 04:36:11;;;;;;;27.60;12.80;;;5.90;99.90;;;;;;4953801;28;20043;-78
2022/04/21 04:38:40;;;;;;;25.98;13.85;;;5.90;99.90;;;;;;4953640;28;20098;-79
2022/04/21 04:43:50;;;;;;;36.07;13.77;;;5.90;99.90;;;;;;4953664;28;20720;-79
2022/04/21 04:49:01;;;;;;;40.03;16.37;;;6.00;99.90;;;;;;4942101;28;20030;-79
2022/04/21 04:51:27;;;;;;;30.80;16.98;;;5.90;99.90;;;;;;4953084;28;20027;-79
2022/04/21 04:53:56;;;;;;;34.78;16.75;;;5.90;99.90;;;;;;4953356;28;20020;-79
2022/04/21 04:56:23;;;;;;;35.47;15.73;;;6.00;99.90;;;;;;4953696;28;20050;-79
2022/04/21 04:58:48;;;;;;;31.23;16.63;;;5.90;99.90;;;;;;4953390;28;20027;-79
2022/04/21 05:01:26;;;;;;;36.50;16.60;;;5.90;99.90;;;;;;4953171;28;20162;-79
2022/04/21 05:04:03;;;;;;;35.37;17.70;;;5.80;99.90;;;;;;4953052;28;20106;-79
2022/04/21 05:06:29;;;;;;;37.83;17.77;;;5.80;99.90;;;;;;4953279;28;20039;-79
2022/04/21 05:11:30;;;;;;;42.40;19.52;;;6.10;99.90;;;;;;4962837;28;20097;-82
2022/04/21 05:13:55;;;;;;;40.15;19.58;;;6.20;99.90;;;;;;4954978;28;20106;-81
2022/04/21 05:16:21;;;;;;;39.55;19.65;;;6.30;99.90;;;;;;4955274;28;20316;-81
2022/04/21 05:18:48;;;;;;;38.33;18.95;;;6.50;99.90;;;;;;4954956;28;20467;-82
2022/04/21 05:21:15;;;;;;;35.13;16.70;;;6.50;99.90;;;;;;4971989;28;20046;-82
2022/04/21 05:23:44;;;;;;;36.85;18.08;;;6.50;99.90;;;;;;4972359;28;20022;-82
2022/04/21 05:26:10;;;;;;;36.15;18.13;;;6.60;99.90;;;;;;4972124;28;20399;-82
2022/04/21 05:28:36;;;;;;;32.63;17.02;;;6.60;99.90;;;;;;4971962;28;20021;-82
2022/04/21 05:31:03;;;;;;;33.13;17.50;;;6.70;99.90;;;;;;4972102;28;20035;-82
2022/04/21 05:33:30;;;;;;;36.88;18.00;;;6.80;99.90;;;;;;4972563;28;20103;-81
2022/04/21 05:35:58;;;;;;;33.38;18.02;;;6.90;99.90;;;;;;4954503;28;20042;-82
2022/04/21 05:38:24;;;;;;;32.28;17.20;;;7.00;99.90;;;;;;4971919;28;20023;-82
2022/04/21 05:40:51;;;;;;;36.65;19.13;;;7.20;99.90;;;;;;4967233;28;20088;-82
2022/04/21 05:43:19;;;;;;;36.17;18.73;;;7.40;99.90;;;;;;4953966;28;20019;-83
2022/04/21 05:45:46;;;;;;;31.42;18.13;;;7.60;99.90;;;;;;4971392;28;20018;-82
2022/04/21 05:48:14;;;;;;;39.05;18.33;;;7.80;99.90;;;;;;4972216;28;20035;-81
2022/04/21 05:50:42;;;;;;;32.13;16.00;;;8.00;99.90;;;;;;4972074;28;20412;-82
2022/04/21 05:53:14;;;;;;;32.90;14.93;;;8.30;99.90;;;;;;4971756;28;20091;-84
2022/04/21 05:55:40;;;;;;;39.08;15.93;;;8.50;99.90;;;;;;4971467;28;20031;-83
2022/04/21 05:58:05;;;;;;;28.73;14.45;;;8.60;99.90;;;;;;4972246;28;20368;-83
2022/04/21 06:00:31;;;;;;;27.92;13.82;;;8.80;99.90;;;;;;4971585;28;20471;-83
2022/04/21 06:02:58;;;;;;;27.98;12.50;;;8.90;99.90;;;;;;4954286;28;20023;-82
2022/04/21 06:05:23;;;;;;;23.17;13.20;;;9.00;99.90;;;;;;4971849;28;20538;-82
2022/04/21 06:07:49;;;;;;;21.58;11.05;;;9.20;99.90;;;;;;4971560;28;20848;-82
2022/04/21 06:10:15;;;;;;;20.50;9.98;;;9.30;99.90;;;;;;4992303;23;20518;-78
2022/04/21 06:12:40;;;;;;;28.40;11.60;;;9.50;99.90;;;;;;4971714;28;20066;-78
2022/04/21 06:15:06;;;;;;;21.42;10.57;;;9.60;99.90;;;;;;4971638;28;20027;-78
2022/04/21 06:17:32;;;;;;;21.75;10.52;;;9.70;99.90;;;;;;4971465;28;20495;-78
2022/04/21 06:19:58;;;;;;;21.77;11.25;;;9.80;99.90;;;;;;4971945;28;20031;-78
2022/04/21 06:22:23;;;;;;;20.25;10.70;;;9.80;99.90;;;;;;4971611;28;20476;-79
2022/04/21 06:24:49;;;;;;;20.10;11.95;;;9.90;99.90;;;;;;4971169;28;20105;-78
2022/04/21 06:27:15;;;;;;;16.33;10.30;;;10.00;99.90;;;;;;4971816;28;20081;-78
2022/04/21 06:29:41;;;;;;;24.30;12.65;;;10.10;99.90;;;;;;4971290;28;20015;-79
2022/04/21 06:32:07;;;;;;;18.05;10.02;;;10.20;99.90;;;;;;4954221;28;20033;-79
2022/04/21 06:34:33;;;;;;;23.58;11.40;;;10.20;99.90;;;;;;4954352;28;20031;-79
2022/04/21 06:37:02;;;;;;;21.30;10.70;;;10.40;99.90;;;;;;4971474;28;20110;-79
2022/04/21 06:39:27;;;;;;;18.20;10.65;;;10.40;99.90;;;;;;4968704;28;20074;-79
2022/04/21 06:41:53;;;;;;;24.60;11.30;;;10.50;99.90;;;;;;4966649;28;20491;-80
2022/04/21 06:49:48;;;;;;;21.25;10.88;;;10.80;99.90;;;;;;4958980;28;20034;-79
2022/04/21 06:52:14;;;;;;;22.40;11.20;;;10.80;99.90;;;;;;4970693;28;20027;-79
2022/04/21 06:54:40;;;;;;;19.30;11.23;;;10.90;99.90;;;;;;4970285;28;20019;-80
2022/04/21 06:57:05;;;;;;;21.33;11.07;;;10.90;99.90;;;;;;4974491;28;20069;-79
2022/04/21 06:59:31;;;;;;;20.83;11.25;;;11.00;99.90;;;;;;4973830;28;20023;-79
2022/04/21 07:01:56;;;;;;;20.25;11.20;;;11.10;99.90;;;;;;4972624;28;20019;-79
2022/04/21 07:04:22;;;;;;;23.70;11.30;;;11.20;99.90;;;;;;4974363;28;20022;-79
2022/04/21 07:06:48;;;;;;;24.40;12.32;;;11.20;99.90;;;;;;4974494;28;20579;-80
2022/04/21 07:09:14;;;;;;;26.20;11.70;;;11.20;99.90;;;;;;4997282;23;20026;-82
2022/04/21 07:11:39;;;;;;;19.70;13.05;;;11.40;99.90;;;;;;4969898;28;20495;-83
2022/04/21 07:14:06;;;;;;;20.33;11.23;;;11.40;99.90;;;;;;4993774;28;20105;-83
2022/04/21 07:16:31;;;;;;;23.77;13.32;;;11.50;99.90;;;;;;4993460;28;20113;-81
2022/04/21 07:18:57;;;;;;;19.63;12.15;;;11.50;99.90;;;;;;4976571;28;20109;-82
2022/04/21 07:21:23;;;;;;;23.17;12.40;;;11.60;99.90;;;;;;4975874;28;20551;-82
2022/04/21 07:23:49;;;;;;;22.60;11.55;;;11.70;99.90;;;;;;4974257;28;20026;-80
2022/04/21 07:26:15;;;;;;;19.48;10.40;;;11.80;99.90;;;;;;4975793;28;20027;-81
2022/04/21 07:28:43;;;;;;;21.77;11.07;;;12.00;99.90;;;;;;4980219;28;20049;-84
2022/04/21 07:31:08;;;;;;;20.27;10.77;;;12.30;99.90;;;;;;4987752;28;20022;-85
2022/04/21 07:33:34;;;;;;;17.95;10.40;;;12.40;99.90;;;;;;4993476;28;20037;-83
2022/04/21 07:36:00;;;;;;;17.35;10.25;;;12.50;99.90;;;;;;4972785;28;20057;-83
2022/04/21 07:38:25;;;;;;;16.27;9.63;;;12.70;99.90;;;;;;4986030;28;20025;-80
2022/04/21 07:40:53;;;;;;;19.50;10.57;;;12.80;99.90;;;;;;4975146;28;20022;-83
2022/04/21 07:43:20;;;;;;;17.38;10.05;;;13.00;99.20;;;;;;4974470;28;20023;-81
2022/04/21 07:45:46;;;;;;;18.40;9.68;;;13.00;99.80;;;;;;4991499;28;20101;-81
2022/04/21 07:48:12;;;;;;;22.23;10.13;;;13.10;99.00;;;;;;4975750;28;20033;-81
2022/04/21 07:50:38;;;;;;;20.90;11.00;;;13.30;99.30;;;;;;4975634;28;20026;-81
2022/04/21 07:53:15;;;;;;;18.73;10.18;;;13.30;97.50;;;;;;4992897;28;20031;-84
2022/04/21 07:55:50;;;;;;;13.00;9.90;;;13.40;98.10;;;;;;4974858;28;20422;-83
2022/04/21 07:58:16;;;;;;;14.88;8.65;;;13.60;97.30;;;;;;4974767;28;20026;-83
2022/04/21 08:00:42;;;;;;;14.70;9.23;;;13.70;97.40;;;;;;4982530;28;20057;-83
2022/04/21 08:03:07;;;;;;;18.48;10.30;;;13.70;96.40;;;;;;4985787;28;20510;-83
2022/04/21 08:05:33;;;;;;;17.13;9.43;;;13.80;95.70;;;;;;4985761;28;20023;-83
2022/04/21 08:08:00;;;;;;;16.35;9.32;;;13.90;94.90;;;;;;4985031;28;20046;-81
2022/04/21 09:10:07;;;;;;;15.32;7.40;;;20.20;60.70;;;;;;5696789;23;20085;-80
2022/04/21 09:12:34;;;;;;;11.88;7.75;;;20.90;59.10;;;;;;4981208;28;20050;-80
2022/04/21 09:15:12;;;;;;;13.52;7.13;;;21.30;58.70;;;;;;4989909;28;20072;-79
2022/04/21 09:17:52;;;;;;;12.73;7.15;;;22.20;53.60;;;;;;4984776;28;20038;-79
2022/04/21 09:20:23;;;;;;;12.60;7.93;;;22.70;53.30;;;;;;4977095;28;20476;-79
2022/04/21 09:22:54;;;;;;;13.52;8.32;;;23.00;50.00;;;;;;4969700;28;20030;-80
2022/04/21 09:25:24;;;;;;;;;;;23.40;49.00;;;;;;4969287;28;20026;-80
2022/04/21 09:27:51;;;;;;;15.13;7.93;;;23.50;48.10;;;;;;4967696;28;19917;-80
2022/04/21 09:30:17;;;;;;;10.45;6.90;;;23.60;46.50;;;;;;4971331;28;20117;-80
2022/04/21 09:32:55;;;;;;;13.25;7.68;;;23.70;45.30;;;;;;4966414;28;20538;-79
2022/04/21 09:35:23;;;;;;;12.93;6.72;;;24.10;45.30;;;;;;4954280;28;20028;-79
2022/04/21 09:37:52;;;;;;;12.93;8.20;;;25.00;46.30;;;;;;4949470;28;20039;-79
2022/04/21 09:40:29;;;;;;;10.60;7.07;;;25.10;43.70;;;;;;4946579;28;20030;-79
2022/04/21 09:43:00;;;;;;;11.48;7.22;;;26.00;41.10;;;;;;4944593;28;20028;-79
2022/04/21 09:48:30;;;;;;;12.63;7.85;;;27.40;39.10;;;;;;4950081;28;20031;-79
2022/04/21 09:51:13;;;;;;;12.65;7.72;;;26.90;36.70;;;;;;4947698;28;20147;-80
2022/04/21 09:54:00;;;;;;;12.75;7.15;;;26.20;40.10;;;;;;4946260;28;20110;-78
2022/04/21 09:56:36;;;;;;;10.65;6.18;;;26.80;38.70;;;;;;4961066;28;20495;-80
2022/04/21 09:59:07;;;;;;;9.38;7.22;;;27.60;38.20;;;;;;4954163;28;20023;-79
2022/04/21 10:01:36;;;;;;;12.82;8.40;;;28.00;36.90;;;;;;4970974;28;20015;-79
2022/04/21 10:04:05;;;;;;;11.10;7.60;;;26.50;36.30;;;;;;4956862;28;20039;-80
2022/04/21 10:06:31;;;;;;;10.32;6.75;;;27.00;36.80;;;;;;4958920;28;20040;-79
2022/04/21 10:08:58;;;;;;;14.98;7.13;;;27.20;37.10;;;;;;4972091;28;20046;-80
2022/04/21 11:10:57;;;;;;;10.43;6.35;;;29.70;31.40;;;;;;5303069;23;20112;-82
2022/04/21 11:13:40;;;;;;;11.48;7.20;;;29.90;30.00;;;;;;4956706;28;20019;-81
2022/04/21 11:16:06;;;;;;;11.77;6.53;;;29.00;29.50;;;;;;4939742;29;20050;-81
2022/04/21 11:18:33;;;;;;;10.82;6.47;;;29.50;30.00;;;;;;4956521;28;20102;-81
2022/04/21 11:21:26;;;;;;;11.90;6.50;;;30.10;30.10;;;;;;4956615;28;20027;-82
2022/04/21 11:23:51;;;;;;;10.02;5.97;;;31.10;28.90;;;;;;4955996;28;20038;-83
2022/04/21 11:26:24;;;;;;;10.85;5.70;;;31.50;29.90;;;;;;4955894;29;20028;-78
2022/04/21 11:28:50;;;;;;;9.68;5.30;;;31.20;29.50;;;;;;4955923;29;20034;-82
2022/04/21 11:31:20;;;;;;;6.15;4.53;;;32.40;29.10;;;;;;4956365;28;20023;-80
2022/04/21 11:33:46;;;;;;;8.43;5.93;;;33.90;27.20;;;;;;4939401;29;20034;-80
2022/04/21 11:36:14;;;;;;;9.88;5.72;;;33.60;25.70;;;;;;4956258;29;20023;-79
2022/04/21 11:38:45;;;;;;;8.40;5.43;;;32.60;25.70;;;;;;4956182;28;20138;-81
2022/04/21 11:41:13;;;;;;;6.53;4.63;;;31.00;27.20;;;;;;4955531;28;20046;-83
2022/04/21 11:43:49;;;;;;;7.47;4.43;;;31.30;26.40;;;;;;4937795;29;20566;-82
2022/04/21 11:46:18;;;;;;;7.32;4.53;;;32.00;27.10;;;;;;4938851;29;20118;-83
2022/04/21 11:48:44;;;;;;;9.95;5.00;;;32.60;26.40;;;;;;4955951;28;20029;-82
2022/04/21 11:51:11;;;;;;;6.57;4.40;;;31.60;27.20;;;;;;4955633;28;20031;-80
2022/04/21 11:53:42;;;;;;;7.30;4.45;;;32.60;26.20;;;;;;4969291;28;20491;-82
2022/04/21 11:56:12;;;;;;;10.15;4.95;;;31.80;28.80;;;;;;4973667;28;20031;-80
2022/04/21 11:58:41;;;;;;;10.45;4.85;;;33.00;25.80;;;;;;4973720;28;20030;-79
2022/04/21 12:06:51;;;;;;;9.45;4.70;;;32.70;24.80;;;;;;4973645;28;20122;-80
2022/04/21 13:11:39;;;;;;;5.25;2.67;;;34.00;23.50;;;;;;5038957;23;20358;-82
2022/04/21 13:14:05;;;;;;;5.25;2.70;;;34.20;24.30;;;;;;4956136;28;20488;-82
2022/04/21 13:16:30;;;;;;;3.80;2.90;;;35.30;25.70;;;;;;4973551;28;20026;-82
2022/04/21 13:18:56;;;;;;;4.88;3.20;;;34.80;23.60;;;;;;4973381;28;20110;-82
2022/04/21 13:24:07;;;;;;;6.70;3.28;;;35.00;24.60;;;;;;4972325;28;20057;-82
2022/04/21 13:26:33;;;;;;;4.18;2.80;;;33.20;23.80;;;;;;4971768;28;20031;-82
2022/04/21 13:28:59;;;;;;;4.35;2.92;;;32.00;24.90;;;;;;4972774;28;20134;-83
2022/04/21 13:34:10;;;;;;;3.88;2.72;;;30.30;27.00;;;;;;4972337;28;20037;-82
2022/04/21 13:36:38;;;;;;;4.53;2.47;;;31.00;26.70;;;;;;4972008;28;20538;-82
2022/04/21 13:39:04;;;;;;;4.50;2.60;;;32.20;25.90;;;;;;4972045;28;20019;-82
2022/04/21 13:41:30;;;;;;;3.22;2.72;;;33.40;25.10;;;;;;4971447;28;20011;-83
2022/04/21 13:43:55;;;;;;;4.65;2.67;;;33.70;24.30;;;;;;4971896;28;20023;-82
2022/04/21 13:46:21;;;;;;;4.53;1.90;;;33.90;24.30;;;;;;4972319;28;20077;-82
2022/04/21 13:48:47;;;;;;;3.42;2.00;;;34.20;24.50;;;;;;4972018;28;20102;-82
2022/04/21 13:51:12;;;;;;;3.60;2.20;;;32.10;25.20;;;;;;4971828;28;20027;-82
2022/04/21 13:53:38;;;;;;;2.72;2.13;;;33.10;25.00;;;;;;4972015;28;20019;-83
2022/04/21 13:56:06;;;;;;;3.05;2.00;;;33.10;24.70;;;;;;4971530;28;20081;-83
2022/04/21 13:58:33;;;;;;;3.08;1.80;;;33.70;24.70;;;;;;4971770;28;20383;-83
2022/04/21 14:00:59;;;;;;;3.63;1.85;;;35.60;25.70;;;;;;4971781;28;20194;-82
2022/04/21 14:03:25;;;;;;;2.47;1.80;;;33.50;24.10;;;;;;4972195;28;20093;-82
2022/04/21 14:05:51;;;;;;;2.58;2.00;;;33.90;24.10;;;;;;4971060;28;20066;-83
2022/04/21 14:08:18;;;;;;;2.25;2.00;;;33.00;24.90;;;;;;4971489;28;20105;-82
2022/04/21 14:10:44;;;;;;;1.98;1.65;;;32.90;24.80;;;;;;4987127;23;20058;-82
2022/04/21 14:13:10;;;;;;;3.28;1.83;;;33.10;25.10;;;;;;4953960;28;20379;-81
2022/04/21 14:15:36;;;;;;;2.42;1.73;;;32.50;24.80;;;;;;4954137;28;20034;-82
2022/04/21 14:18:02;;;;;;;2.53;1.90;;;33.10;27.90;;;;;;4970338;28;20058;-82
2022/04/21 14:20:28;;;;;;;2.40;1.80;;;33.60;25.00;;;;;;4970216;28;20023;-82
2022/04/21 14:22:53;;;;;;;3.25;2.03;;;34.20;24.20;;;;;;4971311;28;20557;-82
2022/04/21 14:25:20;;;;;;;2.08;1.30;;;33.10;24.00;;;;;;4954369;28;20031;-82
2022/04/21 14:27:46;;;;;;;2.13;1.27;;;33.10;24.60;;;;;;4971052;28;20034;-84
2022/04/21 14:30:12;;;;;;;1.83;1.45;;;32.00;24.40;;;;;;4971106;28;20073;-81
2022/04/21 14:32:38;;;;;;;1.83;1.40;;;31.40;25.70;;;;;;4970804;28;20050;-81
2022/04/21 14:35:05;;;;;;;2.20;1.80;;;31.10;25.30;;;;;;4970782;28;20033;-81
2022/04/21 14:45:43;;;;;;;2.40;1.90;;;31.80;26.30;;;;;;4961429;28;20042;-80
2022/04/21 14:48:09;;;;;;;2.35;1.80;;;31.50;25.80;;;;;;4931339;28;20062;-82
2022/04/21 14:50:35;;;;;;;3.17;1.73;;;31.50;26.00;;;;;;4950022;28;20037;-83
2022/04/21 14:53:01;;;;;;;2.65;1.90;;;32.40;27.20;;;;;;4944288;28;20024;-83
2022/04/21 14:55:27;;;;;;;1.83;1.50;;;32.00;25.30;;;;;;4947739;28;20389;-82
2022/04/21 14:57:52;;;;;;;3.72;1.77;;;29.70;27.40;;;;;;4947815;28;20015;-82
2022/04/21 15:00:18;;;;;;;1.83;1.52;;;29.10;28.30;;;;;;4948427;28;20051;-84
2022/04/21 15:02:44;;;;;;;1.30;1.08;;;29.40;27.40;;;;;;4933012;28;20031;-84
2022/04/21 15:05:10;;;;;;;1.88;1.42;;;29.50;27.60;;;;;;4932279;28;20053;-84
2022/04/21 15:07:35;;;;;;;3.03;1.60;;;28.40;28.20;;;;;;4931803;28;20071;-84
2022/04/21 16:09:34;;;;;;;4.45;3.35;;;25.40;33.10;;;;;;6119766;23;20165;-87
2022/04/21 16:12:00;;;;;;;4.68;2.97;;;25.10;34.20;;;;;;4967127;28;20023;-84
2022/04/21 16:14:26;;;;;;;5.50;3.03;;;24.20;35.30;;;;;;4975898;28;20031;-83
2022/04/21 16:16:51;;;;;;;5.93;3.45;;;23.80;36.20;;;;;;4992018;28;20474;-82
2022/04/21 16:19:17;;;;;;;7.38;3.78;;;23.50;36.40;;;;;;4982226;28;20026;-84
2022/04/21 16:21:43;;;;;;;4.70;3.30;;;22.40;38.40;;;;;;4962305;28;20031;-83
2022/04/21 16:24:09;;;;;;;5.90;3.38;;;21.80;39.70;;;;;;4972023;28;20019;-85
2022/04/21 16:26:34;;;;;;;6.80;3.05;;;21.30;41.00;;;;;;4971917;28;20534;-84
2022/04/21 16:29:00;;;;;;;8.10;2.97;;;21.00;41.80;;;;;;4954826;28;20475;-84
2022/04/21 16:31:26;;;;;;;3.60;2.55;;;21.10;42.20;;;;;;4955270;28;20070;-83
2022/04/21 16:33:51;;;;;;;3.25;2.45;;;20.80;42.30;;;;;;4971349;28;20195;-83
2022/04/21 16:36:17;;;;;;;4.47;2.47;;;20.80;42.40;;;;;;4948276;28;20082;-84
2022/04/21 16:38:43;;;;;;;6.07;2.50;;;19.90;42.80;;;;;;4970662;28;20029;-83
2022/04/21 16:41:09;;;;;;;3.70;2.22;;;19.50;44.10;;;;;;4967162;28;20086;-85
2022/04/21 16:43:34;;;;;;;3.72;2.05;;;19.50;43.70;;;;;;4955073;28;20077;-84
2022/04/21 16:46:00;;;;;;;2.78;2.05;;;19.00;44.00;;;;;;4954632;28;20018;-85
2022/04/21 16:48:26;;;;;;;2.08;1.60;;;19.00;44.10;;;;;;4954218;28;20054;-87
2022/04/21 16:50:51;;;;;;;3.75;1.85;;;18.90;44.70;;;;;;4969317;28;20039;-85
2022/04/21 16:53:17;;;;;;;3.03;1.80;;;18.80;44.20;;;;;;4953470;28;20057;-87
2022/04/21 16:55:45;;;;;;;5.15;1.60;;;18.50;43.50;;;;;;4945758;28;20523;-85
2022/04/21 16:58:11;;;;;;;2.33;1.55;;;18.40;44.10;;;;;;4954466;28;20026;-87
2022/04/21 17:03:21;;;;;;;2.63;1.80;;;18.00;44.70;;;;;;4965991;28;20037;-87
2022/04/21 17:05:47;;;;;;;1.60;1.08;;;18.10;43.70;;;;;;4955453;28;20387;-86
2022/04/21 17:08:13;;;;;;;2.25;1.50;;;18.00;43.10;;;;;;4972295;28;20141;-88
2022/04/21 18:10:12;;;;;;;1.63;1.00;;;15.10;44.60;;;;;;5877069;23;20419;-83
2022/04/21 18:12:38;;;;;;;2.95;1.15;;;15.00;46.00;;;;;;4972906;28;20026;-83
2022/04/21 18:15:05;;;;;;;2.50;1.27;;;14.90;46.00;;;;;;4984220;28;20495;-81
2022/04/21 18:17:30;;;;;;;2.30;1.50;;;14.80;47.40;;;;;;4984694;28;20031;-82
2022/04/21 18:19:56;;;;;;;2.55;1.55;;;14.60;48.40;;;;;;4988439;28;20033;-82
2022/04/21 18:22:22;;;;;;;3.08;1.70;;;14.40;50.20;;;;;;4981656;28;20113;-83
2022/04/21 18:24:49;;;;;;;5.60;2.58;;;14.30;50.00;;;;;;4989804;28;20022;-83
2022/04/21 18:27:15;;;;;;;3.88;1.83;;;14.10;49.30;;;;;;4978382;28;20466;-82
2022/04/21 18:29:41;;;;;;;3.78;2.00;;;14.00;50.80;;;;;;4989449;28;20089;-83
2022/04/21 18:32:07;;;;;;;3.28;1.90;;;13.90;51.30;;;;;;4980730;28;20511;-82
2022/04/21 18:34:34;;;;;;;5.05;2.28;;;13.70;51.20;;;;;;4974058;28;20058;-82
2022/04/21 18:37:02;;;;;;;3.17;2.03;;;13.60;51.70;;;;;;4971489;28;20482;-79
2022/04/21 18:39:29;;;;;;;3.83;2.50;;;13.50;53.30;;;;;;4970851;28;20118;-83
2022/04/21 18:41:54;;;;;;;3.55;2.05;;;13.40;54.40;;;;;;4973865;28;20061;-83
2022/04/21 18:44:20;;;;;;;4.10;2.70;;;13.30;54.60;;;;;;4971865;28;20616;-82
2022/04/21 18:46:46;;;;;;;4.90;2.47;;;13.20;55.60;;;;;;4989328;28;20042;-82
2022/04/21 18:49:12;;;;;;;6.22;2.63;;;13.10;58.20;;;;;;4989112;28;20495;-80
2022/04/21 18:51:38;;;;;;;5.05;2.53;;;13.00;58.40;;;;;;4975134;28;20058;-81
2022/04/21 18:54:05;;;;;;;5.95;2.58;;;12.90;60.30;;;;;;4979982;28;20026;-81
2022/04/21 18:56:31;;;;;;;6.18;2.67;;;12.80;61.40;;;;;;4987422;28;20022;-81
2022/04/21 18:58:56;;;;;;;4.68;3.00;;;12.60;62.40;;;;;;4992452;28;20027;-81
2022/04/21 19:01:22;;;;;;;6.35;3.88;;;12.50;64.20;;;;;;4979670;28;20434;-81
2022/04/21 19:03:48;;;;;;;7.55;3.53;;;12.50;64.80;;;;;;4993561;28;20065;-81
2022/04/21 19:06:14;;;;;;;5.00;3.33;;;12.40;66.10;;;;;;4993221;28;20038;-81
2022/04/21 20:10:59;;;;;;;10.50;5.93;;;10.40;98.90;;;;;;5549900;23;20050;-81
2022/04/21 20:13:24;;;;;;;12.80;6.68;;;10.30;99.30;;;;;;4985427;28;20544;-80
2022/04/21 20:15:50;;;;;;;12.40;6.45;;;10.40;99.80;;;;;;4987890;28;20034;-81
2022/04/21 20:18:16;;;;;;;10.90;6.45;;;10.30;99.90;;;;;;4988333;28;20073;-82
2022/04/21 20:23:26;;;;;;;14.90;6.63;;;10.20;99.90;;;;;;4987952;28;20033;-82
2022/04/21 20:28:36;;;;;;;15.65;6.95;;;10.10;99.90;;;;;;4987964;28;20522;-81
2022/04/21 20:31:02;;;;;;;13.82;6.85;;;10.20;99.90;;;;;;4987416;28;20061;-81
2022/04/21 20:33:28;;;;;;;15.73;7.30;;;10.10;99.90;;;;;;4956992;28;20030;-82
2022/04/21 20:35:55;;;;;;;17.08;7.82;;;10.10;99.90;;;;;;4986793;28;20041;-81
2022/04/21 20:38:21;;;;;;;11.90;6.60;;;10.00;99.90;;;;;;4987493;28;20040;-81
2022/04/21 20:40:47;;;;;;;14.70;7.07;;;10.00;99.90;;;;;;4986872;28;20045;-82